createdAt,value
2023-05-15T00:03:11.354Z,0.20
2023-05-15T00:06:39.747Z,0.30
2023-05-15T00:10:08.998Z,0.20
2023-05-15T00:13:38.665Z,0.30
2023-05-15T00:17:08.169Z,0.20
2023-05-15T00:20:38.916Z,0.30
2023-05-15T00:24:07.255Z,0.30
2023-05-15T00:27:35.580Z,0.20
2023-05-15T00:31:05.461Z,0.30
2023-05-15T00:34:34.404Z,0.30
2023-05-15T00:38:05.441Z,0.30
2023-05-15T00:41:34.861Z,0.30
2023-05-15T00:45:04.203Z,0.28
2023-05-15T00:48:34.278Z,0.30
2023-05-15T00:52:03.890Z,0.30
2023-05-15T00:55:35.658Z,0.30
2023-05-15T00:59:05.396Z,0.30
2023-05-15T01:02:34.619Z,0.30
2023-05-15T01:06:03.070Z,0.30
2023-05-15T01:09:40.097Z,0.30
2023-05-15T01:13:10.009Z,0.30
2023-05-15T01:16:39.704Z,0.30
2023-05-15T01:20:10.545Z,0.30
2023-05-15T01:24:04.796Z,0.30
2023-05-15T01:27:53.360Z,0.30
2023-05-15T01:31:25.493Z,0.30
2023-05-15T01:35:00.311Z,0.30
2023-05-15T01:38:33.693Z,0.30
2023-05-15T01:42:06.634Z,0.30
2023-05-15T01:45:39.869Z,0.30
2023-05-15T01:49:12.228Z,0.30
2023-05-15T01:52:43.788Z,0.30
2023-05-15T01:56:12.788Z,0.30
2023-05-15T01:59:44.884Z,0.30
2023-05-15T02:03:14.154Z,0.30
2023-05-15T02:06:44.015Z,0.30
2023-05-15T02:10:13.050Z,0.30
2023-05-15T02:13:42.449Z,0.30
2023-05-15T02:17:13.497Z,0.30
2023-05-15T02:20:41.838Z,0.30
2023-05-15T02:24:10.743Z,0.30
2023-05-15T02:27:48.847Z,0.30
2023-05-15T02:31:27.673Z,0.30
2023-05-15T02:35:06.996Z,0.30
2023-05-15T02:38:39.030Z,0.30
2023-05-15T02:42:10.165Z,0.30
2023-05-15T02:45:41.160Z,0.30
2023-05-15T02:49:12.879Z,0.30
2023-05-15T02:52:41.157Z,0.30
2023-05-15T02:56:10.447Z,0.30
2023-05-15T02:59:40.255Z,0.30
2023-05-15T03:03:08.473Z,0.30
2023-05-15T03:06:39.439Z,0.30
2023-05-15T03:10:08.318Z,0.30
2023-05-15T03:13:36.679Z,0.30
2023-05-15T03:17:05.636Z,0.30
2023-05-15T03:20:33.905Z,0.30
2023-05-15T03:24:04.712Z,0.30
2023-05-15T03:27:33.007Z,0.30
2023-05-15T03:31:01.317Z,0.30
2023-05-15T03:34:29.566Z,0.30
2023-05-15T03:37:58.052Z,0.30
2023-05-15T03:41:28.879Z,0.30
2023-05-15T03:44:57.254Z,0.40
2023-05-15T03:48:25.492Z,0.40
2023-05-15T03:51:53.815Z,0.30
2023-05-15T03:55:22.353Z,0.40
2023-05-15T03:58:53.442Z,0.30
2023-05-15T04:02:21.965Z,0.30
2023-05-15T04:05:52.115Z,0.30
2023-05-15T04:09:20.470Z,0.30
2023-05-15T04:12:48.678Z,0.40
2023-05-15T04:16:20.595Z,0.30
2023-05-15T04:19:48.838Z,0.30
2023-05-15T04:23:22.014Z,0.30
2023-05-15T04:26:50.435Z,0.30
2023-05-15T04:30:21.469Z,0.40
2023-05-15T04:33:51.282Z,0.40
2023-05-15T04:37:19.647Z,0.30
2023-05-15T04:40:48.088Z,0.30
2023-05-15T04:44:16.406Z,0.30
2023-05-15T04:47:47.264Z,0.30
2023-05-15T04:51:15.624Z,0.40
2023-05-15T04:54:43.825Z,0.30
2023-05-15T04:58:12.252Z,0.40
2023-05-15T05:01:40.683Z,0.30
2023-05-15T05:05:11.935Z,0.30
2023-05-15T05:08:40.203Z,0.40
2023-05-15T05:12:09.522Z,0.30
2023-05-15T05:15:38.190Z,0.30
2023-05-15T05:19:07.182Z,0.35
2023-05-15T05:22:38.070Z,0.30
2023-05-15T05:26:06.982Z,0.40
2023-05-15T05:29:35.306Z,0.30
2023-05-15T05:33:03.635Z,0.30
2023-05-15T05:36:31.808Z,0.40
2023-05-15T05:40:02.714Z,0.30
2023-05-15T05:43:30.998Z,0.40
2023-05-15T05:46:59.472Z,0.30
2023-05-15T05:50:28.610Z,0.38
2023-05-15T05:53:57.098Z,0.30
2023-05-15T05:57:27.996Z,0.30
2023-05-15T06:00:56.612Z,0.40
2023-05-15T06:04:25.926Z,0.30
2023-05-15T06:07:54.483Z,0.30
2023-05-15T06:11:25.160Z,0.30
2023-05-15T06:14:56.495Z,0.30
2023-05-15T06:18:24.706Z,0.40
2023-05-15T06:21:53.176Z,0.30
2023-05-15T06:25:21.618Z,0.30
2023-05-15T06:28:52.677Z,0.30
2023-05-15T06:32:23.517Z,0.30
2023-05-15T06:35:52.272Z,0.30
2023-05-15T06:39:20.640Z,0.30
2023-05-15T06:42:48.822Z,0.30
2023-05-15T06:46:19.334Z,0.30
2023-05-15T06:49:50.597Z,0.30
2023-05-15T06:53:19.144Z,0.30
2023-05-15T06:56:50.442Z,0.30
2023-05-15T07:00:19.232Z,0.30
2023-05-15T07:03:47.621Z,0.30
2023-05-15T07:07:18.696Z,0.30
2023-05-15T07:10:46.790Z,0.30
2023-05-15T07:14:15.263Z,0.25
2023-05-15T07:17:43.483Z,0.30
2023-05-15T07:21:12.191Z,0.28
2023-05-15T07:24:42.912Z,0.30
2023-05-15T07:28:11.580Z,0.20
2023-05-15T07:31:40.740Z,0.30
2023-05-15T07:35:11.636Z,0.30
2023-05-15T07:38:40.077Z,0.30
2023-05-15T07:42:11.144Z,0.30
2023-05-15T07:45:39.390Z,0.20
2023-05-15T07:49:25.848Z,0.20
2023-05-15T07:52:54.019Z,0.30
2023-05-15T07:56:25.072Z,0.20
2023-05-15T07:59:53.535Z,0.20
2023-05-15T08:03:21.972Z,0.20
2023-05-15T08:06:51.768Z,0.20
2023-05-15T08:10:20.162Z,0.20
2023-05-15T08:13:51.190Z,0.20
2023-05-15T08:17:20.930Z,0.20
2023-05-15T08:20:49.764Z,0.20
2023-05-15T08:24:18.026Z,0.20
2023-05-15T08:27:46.327Z,0.30
2023-05-15T08:31:17.584Z,0.10
2023-05-15T08:34:46.032Z,0.20
2023-05-15T08:38:14.302Z,0.20
2023-05-15T08:41:45.552Z,0.20
2023-05-15T08:45:15.333Z,0.10
2023-05-15T08:48:47.027Z,0.10
2023-05-15T08:52:15.912Z,0.10
2023-05-15T08:55:44.589Z,0.10
2023-05-15T08:59:13.461Z,0.10
2023-05-15T09:02:42.990Z,0.10
2023-05-15T09:06:14.314Z,0.10
2023-05-15T09:09:43.804Z,0.10
2023-05-15T09:13:14.456Z,0.10
2023-05-15T09:16:42.821Z,0.10
2023-05-15T09:20:27.599Z,0.10
2023-05-15T09:23:56.464Z,0.10
2023-05-15T09:27:25.141Z,0.10
2023-05-15T09:30:59.329Z,0.10
2023-05-15T09:34:31.905Z,0.10
2023-05-15T09:38:03.942Z,0.05
2023-05-15T09:41:32.738Z,0.00
2023-05-15T09:45:00.927Z,0.10
2023-05-15T09:48:31.244Z,0.00
2023-05-15T09:52:01.127Z,0.10
2023-05-15T09:55:34.322Z,0.10
2023-05-15T09:59:06.075Z,0.10
2023-05-15T10:02:38.231Z,0.00
2023-05-15T10:06:07.109Z,0.10
2023-05-15T10:09:38.111Z,0.10
2023-05-15T10:13:10.649Z,0.10
2023-05-15T10:16:40.601Z,0.10
2023-05-15T10:20:13.335Z,0.00
2023-05-15T10:23:44.157Z,0.10
2023-05-15T10:27:18.383Z,0.10
2023-05-15T10:30:48.182Z,0.10
2023-05-15T10:34:16.921Z,0.10
2023-05-15T10:37:46.978Z,0.10
2023-05-15T10:41:21.052Z,0.10
2023-05-15T10:44:51.396Z,0.20
2023-05-15T10:48:19.734Z,0.10
2023-05-15T10:51:49.502Z,0.10
2023-05-15T10:55:19.202Z,0.10
2023-05-15T10:58:51.017Z,0.20
2023-05-15T11:02:31.650Z,0.10
2023-05-15T11:06:10.245Z,0.10
2023-05-15T11:09:39.734Z,0.10
2023-05-15T11:13:12.218Z,0.20
2023-05-15T11:17:00.441Z,0.20
2023-05-15T11:20:37.901Z,0.10
2023-05-15T11:24:07.678Z,0.10
2023-05-15T11:27:41.240Z,0.10
2023-05-15T11:31:16.626Z,0.10
2023-05-15T11:34:45.131Z,0.10
2023-05-15T11:38:20.332Z,0.20
2023-05-15T11:41:50.968Z,0.20
2023-05-15T11:45:25.369Z,0.20
2023-05-15T11:48:53.902Z,0.20
2023-05-15T11:52:23.022Z,0.20
2023-05-15T11:55:51.779Z,0.20
2023-05-15T11:59:20.631Z,0.20
2023-05-15T12:02:51.680Z,0.25
2023-05-15T12:06:20.173Z,0.20
2023-05-15T12:09:53.406Z,0.20
2023-05-15T12:13:21.649Z,0.30
2023-05-15T12:16:54.243Z,0.30
2023-05-15T12:20:25.696Z,0.30
2023-05-15T12:27:26.742Z,0.20
2023-05-15T12:30:56.133Z,0.20
2023-05-15T12:34:27.618Z,0.30
2023-05-15T12:37:56.093Z,0.30
2023-05-15T12:41:25.088Z,0.20
2023-05-15T12:44:54.098Z,0.20
2023-05-15T12:48:33.112Z,0.20
2023-05-15T12:52:10.733Z,0.20
2023-05-15T12:55:42.538Z,0.20
2023-05-15T12:59:11.712Z,0.20
2023-05-15T13:02:39.969Z,0.20
2023-05-15T13:06:12.681Z,0.10
2023-05-15T13:09:41.403Z,0.20
2023-05-15T13:13:10.035Z,0.10
2023-05-15T13:16:39.298Z,0.20
2023-05-15T13:20:08.907Z,0.20
2023-05-15T13:23:39.965Z,0.10
2023-05-15T13:27:08.427Z,0.10
2023-05-15T13:30:39.310Z,0.20
2023-05-15T13:34:07.575Z,0.20
2023-05-15T13:37:35.930Z,0.20
2023-05-15T13:41:09.358Z,0.20
2023-05-15T13:44:38.233Z,0.10
2023-05-15T13:48:07.046Z,0.10
2023-05-15T13:51:35.585Z,0.20
2023-05-15T13:55:04.655Z,0.10
2023-05-15T13:58:35.489Z,0.10
2023-05-15T14:02:07.219Z,0.10
2023-05-15T14:05:35.549Z,0.10
2023-05-15T14:09:04.905Z,0.10
2023-05-15T14:12:33.278Z,0.10
2023-05-15T14:16:04.257Z,0.10
2023-05-15T14:19:32.526Z,0.10
2023-05-15T14:23:00.791Z,0.10
2023-05-15T14:26:29.005Z,0.10
2023-05-15T14:29:57.284Z,0.10
2023-05-15T14:33:28.217Z,0.10
2023-05-15T14:36:56.505Z,0.13
2023-05-15T14:40:24.926Z,0.10
2023-05-15T14:43:53.698Z,0.10
2023-05-15T14:47:22.072Z,0.10
2023-05-15T14:50:52.905Z,0.10
2023-05-15T14:54:21.237Z,0.10
2023-05-15T14:57:49.853Z,0.10
2023-05-15T15:01:18.676Z,0.10
2023-05-15T15:04:46.899Z,0.20
2023-05-15T15:08:17.866Z,0.10
2023-05-15T15:11:46.263Z,0.10
2023-05-15T15:15:14.709Z,0.10
2023-05-15T15:18:43.292Z,0.20
2023-05-15T15:22:12.509Z,0.20
2023-05-15T15:25:43.484Z,0.20
2023-05-15T15:29:11.847Z,0.20
2023-05-15T15:32:40.782Z,0.20
2023-05-15T15:36:09.671Z,0.20
2023-05-15T15:39:37.910Z,0.17
2023-05-15T15:43:08.964Z,0.20
2023-05-15T15:46:37.240Z,0.20
2023-05-15T15:50:05.650Z,0.20
2023-05-15T15:53:35.028Z,0.20
2023-05-15T15:57:03.409Z,0.20
2023-05-15T16:00:34.258Z,0.20
2023-05-15T16:04:02.745Z,0.20
2023-05-15T16:07:31.012Z,0.20
2023-05-15T16:11:01.061Z,0.10
2023-05-15T16:14:29.980Z,0.20
2023-05-15T16:18:01.397Z,0.20
2023-05-15T16:21:29.782Z,0.17
2023-05-15T16:24:58.177Z,0.20
2023-05-15T16:28:26.373Z,0.20
2023-05-15T16:31:56.558Z,0.20
2023-05-15T16:35:27.630Z,0.20
2023-05-15T16:38:56.152Z,0.20
2023-05-15T16:42:24.349Z,0.20
2023-05-15T16:45:52.902Z,0.20
2023-05-15T16:49:21.178Z,0.20
2023-05-15T16:52:52.201Z,0.20
2023-05-15T16:56:21.163Z,0.20
2023-05-15T16:59:49.479Z,0.20
2023-05-15T17:03:18.273Z,0.17
2023-05-15T17:06:46.568Z,0.10
2023-05-15T17:10:17.759Z,0.20
2023-05-15T17:13:46.421Z,0.10
2023-05-15T17:17:14.652Z,0.25
2023-05-15T17:20:42.947Z,0.20
2023-05-15T17:24:11.284Z,0.20
2023-05-15T17:27:42.344Z,0.20
2023-05-15T17:31:12.124Z,0.20
2023-05-15T17:34:40.434Z,0.20
2023-05-15T17:38:09.020Z,0.20
2023-05-15T17:41:37.388Z,0.20
2023-05-15T17:45:08.961Z,0.20
2023-05-15T17:48:37.339Z,0.20
2023-05-15T17:52:05.732Z,0.20
2023-05-15T17:55:34.198Z,0.20
2023-05-15T17:59:02.391Z,0.20
2023-05-15T18:02:33.271Z,0.20
2023-05-15T18:06:01.477Z,0.22
2023-05-15T18:09:29.889Z,0.20
2023-05-15T18:12:58.119Z,0.20
2023-05-15T18:16:26.834Z,0.20
2023-05-15T18:19:57.844Z,0.20
2023-05-15T18:23:26.165Z,0.20
2023-05-15T18:26:54.587Z,0.20
2023-05-15T18:30:23.032Z,0.30
2023-05-15T18:33:51.191Z,0.20
2023-05-15T18:37:22.449Z,0.20
2023-05-15T18:40:50.831Z,0.30
2023-05-15T18:44:19.144Z,0.20
2023-05-15T18:47:47.393Z,0.20
2023-05-15T18:51:16.247Z,0.20
2023-05-15T18:54:47.024Z,0.20
2023-05-15T18:58:15.143Z,0.20
2023-05-15T19:01:43.541Z,0.20
2023-05-15T19:05:12.131Z,0.20
2023-05-15T19:08:40.343Z,0.10
2023-05-15T19:12:11.129Z,0.30
2023-05-15T19:15:39.394Z,0.20
2023-05-15T19:19:07.772Z,0.28
2023-05-15T19:22:36.393Z,0.20
2023-05-15T19:26:04.882Z,0.30
2023-05-15T19:29:36.586Z,0.30
2023-05-15T19:33:04.875Z,0.20
2023-05-15T19:36:33.381Z,0.30
2023-05-15T19:40:01.608Z,0.30
2023-05-15T19:43:30.955Z,0.20
2023-05-15T19:47:01.802Z,0.30
2023-05-15T19:50:31.409Z,0.20
2023-05-15T19:54:02.233Z,0.20
2023-05-15T19:57:30.480Z,0.30
2023-05-15T20:00:58.668Z,0.30
2023-05-15T20:04:29.580Z,0.30
2023-05-15T20:07:57.896Z,0.30
2023-05-15T20:11:26.458Z,0.30
2023-05-15T20:14:54.708Z,0.30
2023-05-15T20:18:23.856Z,0.30
2023-05-15T20:21:55.226Z,0.30
2023-05-15T20:25:24.404Z,0.30
2023-05-15T20:28:52.789Z,0.30
2023-05-15T20:32:21.256Z,0.30
2023-05-15T20:35:51.584Z,0.30
2023-05-15T20:39:23.583Z,0.30
2023-05-15T20:42:51.916Z,0.30
2023-05-15T20:46:20.531Z,0.30
2023-05-15T20:49:49.443Z,0.30
2023-05-15T20:53:17.695Z,0.30
2023-05-15T20:56:48.454Z,0.30
2023-05-15T21:00:18.489Z,0.30
2023-05-15T21:03:47.165Z,0.30
2023-05-15T21:07:15.649Z,0.30
2023-05-15T21:10:43.889Z,0.30
2023-05-15T21:14:14.656Z,0.30
2023-05-15T21:17:43.027Z,0.30
2023-05-15T21:21:11.601Z,0.30
2023-05-15T21:24:39.784Z,0.30
2023-05-15T21:28:08.054Z,0.30
2023-05-15T21:31:38.884Z,0.30
2023-05-15T21:35:07.645Z,0.30
2023-05-15T21:38:36.059Z,0.35
2023-05-15T21:42:04.473Z,0.30
2023-05-15T21:45:32.635Z,0.30
2023-05-15T21:49:03.918Z,0.30
2023-05-15T21:52:32.152Z,0.30
2023-05-15T21:56:01.690Z,0.40
2023-05-15T21:59:29.984Z,0.30
2023-05-15T22:02:58.444Z,0.30
2023-05-15T22:06:29.237Z,0.30
2023-05-15T22:09:57.681Z,0.30
2023-05-15T22:13:25.973Z,0.30
2023-05-15T22:16:54.273Z,0.30
2023-05-15T22:20:25.102Z,0.40
2023-05-15T22:23:56.243Z,0.40
2023-05-15T22:27:24.584Z,0.40
2023-05-15T22:30:53.079Z,0.30
2023-05-15T22:34:21.973Z,0.35
2023-05-15T22:37:50.256Z,0.30
2023-05-15T22:41:21.233Z,0.40
2023-05-15T22:44:49.720Z,0.40
2023-05-15T22:48:18.142Z,0.40
2023-05-15T22:51:47.332Z,0.40
2023-05-15T22:55:15.688Z,0.47
2023-05-15T22:58:46.616Z,0.30
2023-05-15T23:02:15.221Z,0.40
2023-05-15T23:05:43.662Z,0.40
2023-05-15T23:09:12.189Z,0.40
2023-05-15T23:12:40.858Z,0.30
2023-05-15T23:16:12.656Z,0.40
2023-05-15T23:19:41.239Z,0.40
2023-05-15T23:23:09.515Z,0.40
2023-05-15T23:26:38.277Z,0.35
2023-05-15T23:30:07.062Z,0.50
2023-05-15T23:33:38.268Z,0.40
2023-05-15T23:37:07.083Z,0.30
2023-05-15T23:40:35.542Z,0.40
2023-05-15T23:44:03.861Z,0.40
2023-05-15T23:47:32.128Z,0.40
2023-05-15T23:51:03.632Z,0.30
2023-05-15T23:54:32.041Z,0.40
2023-05-15T23:58:00.380Z,0.40
